Aérodrome :







RETROUVEZ-NOUS SUR...

 
LOGIN :

S'inscrire | Disclaimer

   EN    FR    IT 

 









Légende :    VFR   VFR Marginal   IFR   IFR Intensif   IFR Très Intensif
Visi : 
Plafond : 
>= 8 km
>= 3000ft
5 à 8 km
1000 à 3000 ft
1500m à 5 km
500 à 1000 ft
800 à 1500m
200 à 500 ft
< 800m
< 200 ft
Symboles :   Orages  Brouillard  Fortes neiges  Fortes précipitations  Vent > 20 kt






- Altitude de l'aérodrome : 488 ft
- Code IATA : EEN


KEEN - Dillant Hopkins

DERNIER METAR :
  • 141356Z AUTO 00000KT 10SM BKN110 M06/M10 A3046 RMK AO2 SLP328 T10611100 FZRANO $

METARs EXPIRÉS :
  • 141256Z AUTO 00000KT 10SM BKN120 M08/M10 A3045 RMK AO2 SLP326 T10831100 FZRANO $
  • 141156Z AUTO 00000KT 10SM SCT120 M10/M11 A3044 RMK AO2 SLP322 T11001106 11094 21111 55004 FZRANO $
  • 141056Z AUTO 19003KT 10SM CLR M11/M12 A3043 RMK AO2 SLP321 T11111122 FZRANO $

TAF N/A



MET'MAP, la Météo Aéronautique d'un coup d'oeil ! - Copyright ORBIFLY Décembre 2007 - Disclaimer

ORBIFLY MET'MAP TEAM :

Programmation & Développement : Alexandra Zaïnal
Conception & Développement : Baudouin d'Aumeries
Co-Programmation & Développement : Marc-Olivier Méhu
Soutien technique & logistique : Manuel Goepfert

Contact : metmap@orbifly.com




SOURCES & CREDITS :

   NOAA